Airfield :
LOGIN :

Register | Disclaimer

   EN    FR    IT 

 










Legend :    VFR   Marginal VFR   IFR   Intensive IFR   Very Intensive IFR
Visi :
Ceiling :
>= 8 km
>= 3000ft
5 to 8 km
1000 to 3000 ft
1500m to 5 km
500 to 1000 ft
800 to 1500m
200 to 500 ft
< 800m
< 200 ft
Symbols :   Thunderstorms  Fog  Heavy snow  Heavy precipitations  Wind > 20 kt
SIGMETs :     Misc.  Thunderstorms  Icing  Turbulence  Mountain Waves  Volcanic Ashes






- Airport Elevation : 294 ft
- IATA code : NAP


LIRN - Naples Capodichino

CURRENT METAR :
  • 021220Z 20008KT 170V240 CAVOK 30/17 Q1011 NOSIG

EXPIRED METARs :
  • 021150Z 20008KT 140V220 CAVOK 31/17 Q1011 NOSIG
  • 021120Z 21007KT 160V240 CAVOK 31/19 Q1011 NOSIG
  • 021050Z 20007KT 140V240 CAVOK 30/18 Q1012 NOSIG
  • 021020Z 19006KT 140V230 CAVOK 30/18 Q1012 NOSIG
  • 020950Z 19005KT 140V220 CAVOK 30/18 Q1012 NOSIG

TAF TAF LIRN
Valid from the 02 at 12:00 until the 03 at 12:00 UTC


021100Z 0212/0312 24010KT CAVOK
BECMG 0217/0219 VRB05KT
BECMG 0310/0312 22010KT



MET'MAP, your aeronautical weather chart ! - Copyright ORBIFLY December 2007 - Disclaimer

ORBIFLY MET'MAP TEAM :

Programming & Development : Alexandra Zaïnal
Concept & original design : Baudouin d'Aumeries
Assistance for programming : Marc-Olivier Méhu
Technical & hardware support : Manuel Goepfert

Contact : metmap@orbifly.com




SOURCES & CREDITS :

   NOAA